Halls, Pennsylvania
Current Conditions -  °F | °C
As of 4:18 PM on Wednesday 26 Nov 2014 (Local Time) from KIPT Reporting Station
Moderate Snow Moderate Snow  
Wind Chill: 29°   Ceiling: 400
Heat Index: 33°   Visibility: 0.5mi
Dew Point: 31°   Wind: 5mph
Humidity: 92%   Direction: 250°WSW
Pressure: 29.99"   Gusts: NA
Location:  41.225°N, 76.7388°W
Report Text: KIPT 262118Z 25004KT 1/2SM SN FG BKN004 OVC008 01/M01 A2999 RMK AO2 P0003 T00061006
Loading
Personal Weather Stations






























Interactive Weather Map New forecast layout! Learn more

10-Day Weather Forecast

Advertisements
Track Severe Weather on mobile